Time;durP1;ratioP1;P1;durP2;ratioP2;P2;SDS_P1;SDS_P2;PMS_P1;PMS_P2;Temp;Humidity;BMP_temperature;BMP_pressure;BME280_temperature;BME280_humidity;BME280_pressure;Samples;Min_cycle;Max_cycle;Signal;HPM_P1;HPM_P2
2022/01/18 00:00:18;;;;;;;17.10;10.88;;;8.00;99.90;;;;;;4948625;29;20274;-62
2022/01/18 00:02:47;;;;;;;14.18;10.25;;;8.10;99.90;;;;;;4954047;29;20234;-63
2022/01/18 00:05:18;;;;;;;17.23;9.90;;;8.10;99.90;;;;;;4953846;29;20238;-62
2022/01/18 00:07:47;;;;;;;12.05;9.10;;;8.20;99.90;;;;;;4953880;29;20203;-63
2022/01/18 00:10:16;;;;;;;11.98;8.85;;;8.20;99.90;;;;;;4953892;29;20262;-63
2022/01/18 00:13:06;;;;;;;15.98;8.35;;;8.30;99.90;;;;;;4953613;29;20235;-63
2022/01/18 00:15:41;;;;;;;12.90;8.38;;;8.30;99.90;;;;;;4954013;29;20223;-65
2022/01/18 00:18:12;;;;;;;20.38;9.52;;;8.20;99.90;;;;;;4952834;29;20239;-64
2022/01/18 00:20:54;;;;;;;12.75;8.50;;;8.30;99.90;;;;;;4946162;29;20684;-64
2022/01/18 00:23:42;;;;;;;9.57;6.65;;;8.40;99.90;;;;;;4941750;29;20209;-64
2022/01/18 00:26:11;;;;;;;14.85;7.85;;;8.40;99.90;;;;;;4941555;29;20322;-64
2022/01/18 00:28:39;;;;;;;12.25;7.43;;;8.50;99.90;;;;;;4953582;29;20230;-64
2022/01/18 00:31:30;;;;;;;16.73;8.18;;;8.40;99.90;;;;;;4953290;28;20210;-64
2022/01/18 00:34:05;;;;;;;15.48;8.52;;;8.50;99.90;;;;;;4953562;29;20211;-64
2022/01/18 00:36:41;;;;;;;11.10;7.40;;;8.60;99.90;;;;;;4948166;29;20238;-64
2022/01/18 00:39:11;;;;;;;12.60;7.90;;;8.60;99.90;;;;;;4952268;28;20307;-64
2022/01/18 00:41:40;;;;;;;14.00;9.43;;;8.60;99.90;;;;;;4953580;29;20231;-64
2022/01/18 00:44:10;;;;;;;17.10;8.85;;;8.60;99.90;;;;;;4953128;29;20672;-64
2022/01/18 00:46:39;;;;;;;10.00;7.65;;;8.50;99.90;;;;;;4940736;29;20266;-63
2022/01/18 00:49:07;;;;;;;18.67;8.98;;;8.50;99.90;;;;;;4933700;29;20588;-64
2022/01/18 00:51:37;;;;;;;11.45;7.43;;;8.50;99.90;;;;;;4942412;29;20241;-64
2022/01/18 00:54:08;;;;;;;9.82;7.25;;;8.40;99.90;;;;;;4941852;29;20282;-64
2022/01/18 00:56:39;;;;;;;10.55;7.60;;;8.40;99.90;;;;;;4952894;29;20258;-63
2022/01/18 00:59:08;;;;;;;19.85;8.68;;;8.40;99.90;;;;;;4953052;29;20585;-64
2022/01/18 01:01:37;;;;;;;11.50;7.60;;;8.40;99.90;;;;;;4953398;29;20249;-64
2022/01/18 01:04:05;;;;;;;16.60;7.82;;;8.40;99.90;;;;;;4952964;29;20207;-64
2022/01/18 01:06:36;;;;;;;15.68;8.48;;;8.50;99.90;;;;;;4952874;29;20803;-63
2022/01/18 01:09:05;;;;;;;15.32;7.32;;;8.50;99.90;;;;;;4953045;29;20199;-64
2022/01/18 01:11:37;;;;;;;14.43;7.78;;;8.50;99.90;;;;;;4953149;29;20247;-64
2022/01/18 01:14:08;;;;;;;12.85;7.95;;;8.50;99.90;;;;;;4952994;29;20680;-64
2022/01/18 01:19:30;;;;;;;13.07;7.10;;;8.60;99.90;;;;;;4937411;29;20322;-64
2022/01/18 01:36:02;;;;;;;17.17;6.57;;;8.80;99.90;;;;;;4946745;29;20298;-64
2022/01/18 01:44:07;;;;;;;11.35;7.50;;;8.70;99.90;;;;;;4937770;28;20282;-63
2022/01/18 01:46:37;;;;;;;14.27;8.07;;;8.60;99.90;;;;;;4950726;29;20310;-63
2022/01/18 01:49:09;;;;;;;13.32;6.97;;;8.70;99.90;;;;;;4951122;29;20666;-63
2022/01/18 01:51:37;;;;;;;12.02;7.30;;;8.60;99.90;;;;;;4948842;29;20219;-63
2022/01/18 01:54:08;;;;;;;14.15;6.68;;;8.70;99.90;;;;;;4956160;29;20207;-62
2022/01/18 01:56:36;;;;;;;9.75;6.15;;;8.70;99.90;;;;;;4956275;29;20254;-63
2022/01/18 01:59:05;;;;;;;10.05;6.35;;;8.70;99.90;;;;;;4956470;29;20254;-64
2022/01/18 02:01:41;;;;;;;11.57;6.82;;;8.70;99.90;;;;;;4956283;29;20255;-64
2022/01/18 02:04:10;;;;;;;18.60;7.38;;;8.70;99.90;;;;;;4956312;28;20213;-63
2022/01/18 02:06:37;;;;;;;10.65;6.72;;;8.70;99.90;;;;;;4955910;29;20266;-64
2022/01/18 02:09:08;;;;;;;15.88;7.60;;;8.70;99.90;;;;;;4956248;29;20290;-63
2022/01/18 02:11:36;;;;;;;13.07;7.43;;;8.80;99.90;;;;;;4956225;29;20235;-63
2022/01/18 02:14:06;;;;;;;13.20;7.60;;;8.70;99.90;;;;;;4955975;29;20765;-64
2022/01/18 02:22:08;;;;;;;11.00;8.30;;;8.40;99.90;;;;;;4949554;29;20231;-64
2022/01/18 02:24:36;;;;;;;14.00;8.88;;;8.30;99.90;;;;;;4955996;28;20235;-64
2022/01/18 02:27:04;;;;;;;10.02;8.32;;;8.40;99.90;;;;;;4955684;29;20270;-64
2022/01/18 02:29:32;;;;;;;14.02;10.95;;;8.50;99.90;;;;;;4955792;28;20235;-63
2022/01/18 02:32:00;;;;;;;17.92;10.90;;;8.50;99.90;;;;;;4955568;29;20239;-63
2022/01/18 02:34:28;;;;;;;13.30;9.25;;;8.40;99.90;;;;;;4955809;29;20234;-64
2022/01/18 02:36:57;;;;;;;14.00;9.15;;;8.50;99.90;;;;;;4952631;29;20317;-64
2022/01/18 02:39:28;;;;;;;12.15;8.27;;;8.50;99.90;;;;;;4955708;29;20266;-64
2022/01/18 02:41:58;;;;;;;14.90;8.45;;;8.50;99.90;;;;;;4955539;29;20294;-64
2022/01/18 02:44:27;;;;;;;13.07;8.82;;;8.60;99.90;;;;;;4955847;29;20364;-63
2022/01/18 02:46:55;;;;;;;15.32;9.07;;;8.60;99.90;;;;;;4955248;28;20234;-64
2022/01/18 02:49:23;;;;;;;14.50;8.13;;;8.60;99.90;;;;;;4951499;29;20304;-64
2022/01/18 02:51:51;;;;;;;15.00;11.18;;;8.50;99.90;;;;;;4949596;29;20254;-64
2022/01/18 02:54:20;;;;;;;17.55;9.48;;;8.30;99.90;;;;;;4955004;28;20724;-64
2022/01/18 02:56:55;;;;;;;13.02;9.32;;;8.20;99.90;;;;;;4954985;28;20258;-64
2022/01/18 02:59:31;;;;;;;18.25;10.05;;;8.30;99.90;;;;;;4955324;29;20223;-63
2022/01/18 03:04:49;;;;;;;15.73;9.77;;;8.20;99.90;;;;;;4948080;29;20668;-63
2022/01/18 03:07:17;;;;;;;12.77;9.43;;;8.30;99.90;;;;;;4954843;29;20250;-63
2022/01/18 03:09:45;;;;;;;16.77;10.02;;;8.40;99.90;;;;;;4955062;29;20708;-64
2022/01/18 03:12:16;;;;;;;11.63;9.38;;;8.50;99.90;;;;;;4954822;28;20291;-64
2022/01/18 03:14:44;;;;;;;20.30;11.13;;;8.60;99.90;;;;;;4955126;29;20207;-63
2022/01/18 03:17:13;;;;;;;21.65;10.18;;;8.40;99.90;;;;;;4954771;29;20247;-63
2022/01/18 03:19:41;;;;;;;15.98;9.02;;;8.40;99.90;;;;;;4945503;29;20259;-64
2022/01/18 03:22:09;;;;;;;15.23;10.70;;;8.50;99.90;;;;;;4951089;29;20619;-63
2022/01/18 03:24:53;;;;;;;11.70;9.20;;;8.40;99.90;;;;;;4954901;29;20235;-63
2022/01/18 03:30:10;;;;;;;14.25;8.25;;;8.50;99.90;;;;;;4954717;29;20234;-64
2022/01/18 03:32:38;;;;;;;9.70;6.78;;;8.50;99.90;;;;;;4954586;29;20204;-64
2022/01/18 03:35:09;;;;;;;13.25;7.45;;;8.50;99.90;;;;;;4954668;29;20238;-63
2022/01/18 03:37:39;;;;;;;10.57;6.05;;;8.50;99.90;;;;;;4952859;29;20321;-64
2022/01/18 03:40:10;;;;;;;8.85;5.90;;;8.50;99.90;;;;;;4954524;29;20219;-63
2022/01/18 03:42:42;;;;;;;12.05;5.18;;;8.40;99.90;;;;;;4954387;28;20290;-63
2022/01/18 03:45:14;;;;;;;12.95;6.32;;;8.50;99.90;;;;;;4954484;29;20242;-63
2022/01/18 03:47:43;;;;;;;10.90;5.35;;;8.50;99.90;;;;;;4954514;28;20243;-63
2022/01/18 03:50:12;;;;;;;10.30;6.25;;;8.50;99.90;;;;;;4948847;28;20256;-62
2022/01/18 03:52:40;;;;;;;11.25;5.18;;;8.60;99.90;;;;;;4948838;29;20199;-64
2022/01/18 03:55:11;;;;;;;10.32;4.75;;;8.60;99.90;;;;;;4950212;29;20304;-63
2022/01/18 03:57:41;;;;;;;7.20;4.05;;;8.60;99.90;;;;;;4952106;28;20303;-64
2022/01/18 04:00:13;;;;;;;15.05;6.03;;;8.60;99.90;;;;;;4954124;29;20338;-63
2022/01/18 04:02:41;;;;;;;8.20;5.22;;;8.60;99.90;;;;;;4954010;29;20203;-63
2022/01/18 04:05:10;;;;;;;8.55;3.88;;;8.60;99.90;;;;;;4953977;29;20265;-63
2022/01/18 04:07:38;;;;;;;7.18;3.95;;;8.60;99.90;;;;;;4953187;28;20231;-64
2022/01/18 04:10:08;;;;;;;9.80;4.15;;;8.60;99.90;;;;;;4952527;29;20251;-63
2022/01/18 04:12:36;;;;;;;11.70;4.38;;;8.60;99.90;;;;;;4953693;29;20668;-63
2022/01/18 04:15:08;;;;;;;7.95;3.50;;;8.60;99.90;;;;;;4953935;28;20249;-63
2022/01/18 04:17:51;;;;;;;8.98;3.53;;;8.60;99.90;;;;;;4953871;28;20263;-64
2022/01/18 04:26:00;;;;;;;8.98;3.20;;;8.40;99.90;;;;;;4953790;29;20700;-64
2022/01/18 04:28:35;;;;;;;10.05;3.33;;;8.40;99.90;;;;;;4953470;29;20235;-64
2022/01/18 04:31:06;;;;;;;11.40;4.10;;;8.30;99.90;;;;;;4953763;29;20226;-64
2022/01/18 04:33:35;;;;;;;12.20;3.72;;;8.20;99.90;;;;;;4953542;29;20209;-64
2022/01/18 04:36:03;;;;;;;8.48;3.50;;;8.20;99.90;;;;;;4952736;29;20262;-63
2022/01/18 04:38:31;;;;;;;7.05;3.30;;;8.20;99.90;;;;;;4953547;29;20309;-63
2022/01/18 04:41:05;;;;;;;7.90;4.15;;;8.30;99.90;;;;;;4953322;28;20243;-63
2022/01/18 04:43:46;;;;;;;8.60;4.10;;;8.20;99.90;;;;;;4953438;29;20207;-63
2022/01/18 04:49:03;;;;;;;11.07;3.55;;;8.40;99.90;;;;;;4944149;29;20634;-64
2022/01/18 04:51:31;;;;;;;8.15;4.07;;;8.50;99.90;;;;;;4942881;29;20298;-63
2022/01/18 04:54:01;;;;;;;9.60;3.20;;;8.50;99.90;;;;;;4953021;28;20731;-62
2022/01/18 04:57:52;;;;;;;9.27;2.90;;;8.60;99.90;;;;;;4953103;28;20265;-63
2022/01/18 04:59:24;;;;;;;6.15;3.20;;;8.60;99.90;;;;;;4953236;29;20235;-63
2022/01/18 05:01:55;;;;;;;11.45;3.40;;;8.50;99.90;;;;;;4951099;28;20339;-63
2022/01/18 05:04:23;;;;;;;11.07;4.05;;;8.50;99.90;;;;;;4953232;29;20234;-64
2022/01/18 05:06:57;;;;;;;11.10;3.00;;;8.50;99.90;;;;;;4953317;28;20251;-64
2022/01/18 05:09:24;;;;;;;8.07;3.15;;;8.40;99.90;;;;;;4953159;29;20774;-64
2022/01/18 05:12:00;;;;;;;9.68;3.15;;;8.30;99.90;;;;;;4953022;29;20251;-62
2022/01/18 05:14:31;;;;;;;8.20;3.20;;;8.30;99.90;;;;;;4953036;29;20211;-64
2022/01/18 05:17:09;;;;;;;6.70;2.88;;;8.40;99.90;;;;;;4953068;28;20274;-63
2022/01/18 05:19:57;;;;;;;8.70;3.13;;;8.30;99.90;;;;;;4952599;29;20680;-63
2022/01/18 05:25:10;;;;;;;6.60;3.20;;;8.50;99.90;;;;;;4956976;29;20210;-64
2022/01/18 05:27:39;;;;;;;9.13;5.63;;;8.50;99.90;;;;;;4956717;29;20603;-64
2022/01/18 05:30:07;;;;;;;11.25;6.30;;;8.10;99.90;;;;;;4954062;29;20297;-62
2022/01/18 05:32:37;;;;;;;11.00;5.22;;;7.90;99.90;;;;;;4956641;29;20231;-63
2022/01/18 05:35:05;;;;;;;12.27;5.47;;;7.80;99.90;;;;;;4956780;29;20297;-62
2022/01/18 05:37:33;;;;;;;9.05;5.50;;;7.90;99.90;;;;;;4969378;23;20953;-69
2022/01/18 05:40:01;;;;;;;7.95;4.03;;;8.00;99.90;;;;;;4938086;29;20290;-72
2022/01/18 05:42:29;;;;;;;8.52;5.45;;;8.10;99.90;;;;;;4934067;29;20205;-71
2022/01/18 05:44:57;;;;;;;9.95;5.68;;;8.10;99.90;;;;;;4953583;29;20657;-71
2022/01/18 05:47:25;;;;;;;10.80;5.43;;;8.20;99.90;;;;;;4953821;29;20313;-71
2022/01/18 05:49:56;;;;;;;8.38;5.70;;;8.10;99.90;;;;;;4942797;29;20286;-72
2022/01/18 05:52:24;;;;;;;13.55;5.55;;;8.10;99.90;;;;;;4953007;29;20570;-73
2022/01/18 05:54:52;;;;;;;12.05;5.35;;;8.10;99.90;;;;;;4950629;29;20296;-72
2022/01/18 05:57:20;;;;;;;6.50;4.93;;;8.10;99.90;;;;;;4937248;29;20232;-71
2022/01/18 05:59:50;;;;;;;9.25;5.15;;;8.20;99.90;;;;;;4955314;29;20242;-75
2022/01/18 06:02:30;;;;;;;8.98;6.15;;;8.20;99.90;;;;;;4927778;29;20230;-73
2022/01/18 06:07:44;;;;;;;9.27;4.40;;;8.10;99.90;;;;;;4927197;29;20248;-74
2022/01/18 06:10:14;;;;;;;12.38;5.85;;;8.00;99.90;;;;;;4933878;29;20195;-74
2022/01/18 06:12:41;;;;;;;12.43;4.90;;;7.80;99.90;;;;;;4946420;29;20247;-74
2022/01/18 06:15:10;;;;;;;12.93;5.07;;;7.70;99.90;;;;;;4934527;29;20239;-74
2022/01/18 06:17:39;;;;;;;9.52;5.10;;;7.60;99.90;;;;;;4931689;29;20247;-72
2022/01/18 06:20:10;;;;;;;17.40;5.35;;;7.60;99.90;;;;;;4934643;29;20232;-75
2022/01/18 06:22:37;;;;;;;8.23;4.45;;;7.50;99.90;;;;;;4933020;29;20734;-74
2022/01/18 06:25:07;;;;;;;10.02;4.53;;;7.40;99.90;;;;;;4935753;29;20758;-72
2022/01/18 06:27:35;;;;;;;12.55;4.30;;;7.40;99.90;;;;;;4945219;29;20662;-74
2022/01/18 06:30:05;;;;;;;7.78;2.80;;;7.30;99.90;;;;;;4944673;28;20227;-74
2022/01/18 06:32:33;;;;;;;9.38;3.70;;;7.30;99.90;;;;;;4932009;29;20295;-73
2022/01/18 06:35:01;;;;;;;10.45;6.93;;;7.10;99.90;;;;;;4931878;29;20204;-74
2022/01/18 06:37:30;;;;;;;10.13;7.78;;;6.90;99.90;;;;;;4931358;29;20244;-75
2022/01/18 06:40:00;;;;;;;10.90;6.30;;;6.90;99.90;;;;;;4931772;29;20232;-75
2022/01/18 06:42:28;;;;;;;7.43;5.53;;;6.90;99.90;;;;;;4931401;29;20224;-75
2022/01/18 06:44:56;;;;;;;6.28;3.95;;;6.90;99.90;;;;;;4931494;29;20299;-74
2022/01/18 06:47:24;;;;;;;5.20;3.80;;;6.90;99.90;;;;;;4931295;29;20855;-72
2022/01/18 06:49:52;;;;;;;4.97;3.95;;;7.00;99.90;;;;;;4931147;29;20255;-74
2022/01/18 06:52:20;;;;;;;5.70;3.78;;;7.00;99.90;;;;;;4944663;29;20242;-74
2022/01/18 06:54:49;;;;;;;7.00;3.88;;;7.10;99.90;;;;;;4933264;29;20232;-75
2022/01/18 06:57:18;;;;;;;3.90;3.47;;;7.10;99.90;;;;;;4932178;29;20255;-75
2022/01/18 06:59:46;;;;;;;4.53;2.55;;;7.10;99.90;;;;;;4932500;29;20320;-76
2022/01/18 07:02:15;;;;;;;2.20;1.98;;;7.10;99.90;;;;;;4924923;29;20685;-75
2022/01/18 07:04:43;;;;;;;2.67;2.15;;;7.10;99.90;;;;;;4931360;29;20973;-75
2022/01/18 07:07:11;;;;;;;3.25;2.53;;;7.10;99.90;;;;;;4927923;29;20260;-75
2022/01/18 07:09:39;;;;;;;2.88;1.30;;;7.10;99.90;;;;;;4924900;29;20284;-75
2022/01/18 07:12:11;;;;;;;4.95;1.30;;;7.10;99.90;;;;;;4925044;29;20235;-74
2022/01/18 07:14:40;;;;;;;7.65;1.75;;;7.10;99.90;;;;;;4928537;29;20239;-75
2022/01/18 07:17:08;;;;;;;2.35;1.13;;;7.10;99.90;;;;;;4947616;29;20231;-75
2022/01/18 07:19:36;;;;;;;10.65;6.05;;;6.90;99.90;;;;;;4934530;29;20237;-73
2022/01/18 07:22:05;;;;;;;12.68;8.13;;;6.70;99.90;;;;;;4931685;29;20255;-76
2022/01/18 07:24:41;;;;;;;9.82;8.55;;;6.60;99.90;;;;;;4928621;29;20208;-75
2022/01/18 07:27:12;;;;;;;13.80;10.25;;;6.60;99.90;;;;;;4930499;29;21018;-75
2022/01/18 07:29:42;;;;;;;11.95;9.10;;;6.60;99.90;;;;;;4925582;29;20278;-75
2022/01/18 07:32:11;;;;;;;13.73;10.15;;;6.60;99.90;;;;;;4934406;29;20199;-76
2022/01/18 07:34:45;;;;;;;12.75;9.23;;;6.60;99.90;;;;;;4938327;29;20204;-76
2022/01/18 07:37:14;;;;;;;13.65;9.73;;;6.60;99.90;;;;;;4935145;29;20253;-75
2022/01/18 07:39:48;;;;;;;12.25;8.75;;;6.70;99.90;;;;;;4935178;29;20216;-74
2022/01/18 07:42:19;;;;;;;10.48;7.50;;;6.70;99.90;;;;;;4934425;29;20219;-76
2022/01/18 07:44:46;;;;;;;7.32;5.50;;;6.80;99.90;;;;;;4935517;29;20360;-76
2022/01/18 07:47:14;;;;;;;9.88;4.15;;;6.80;99.90;;;;;;4934701;29;20612;-76
2022/01/18 07:49:45;;;;;;;6.60;3.15;;;6.80;99.90;;;;;;4935536;29;20688;-74
2022/01/18 07:52:13;;;;;;;9.10;5.43;;;6.90;99.90;;;;;;4945429;29;20278;-76
2022/01/18 07:54:41;;;;;;;7.30;4.55;;;6.90;99.90;;;;;;4948531;29;20238;-76
2022/01/18 07:57:13;;;;;;;6.60;4.38;;;6.90;99.90;;;;;;4953963;29;20664;-76
2022/01/18 07:59:43;;;;;;;5.80;3.95;;;7.00;99.90;;;;;;4953686;29;20688;-76
2022/01/18 08:02:11;;;;;;;3.40;2.88;;;7.00;99.90;;;;;;4953652;29;20253;-75
2022/01/18 08:04:39;;;;;;;6.68;3.60;;;7.10;99.90;;;;;;4953885;29;20203;-76
2022/01/18 08:07:07;;;;;;;4.65;3.85;;;7.00;99.90;;;;;;4953691;29;20259;-76
2022/01/18 08:09:36;;;;;;;7.45;5.05;;;7.00;99.90;;;;;;4953861;29;20250;-76
2022/01/18 08:12:05;;;;;;;5.60;5.10;;;7.00;99.90;;;;;;4953421;29;20207;-73
2022/01/18 08:14:33;;;;;;;11.93;5.97;;;7.00;99.90;;;;;;4953687;29;20657;-75
2022/01/18 08:17:05;;;;;;;9.25;6.45;;;7.10;99.90;;;;;;4952318;29;20262;-76
2022/01/18 08:19:35;;;;;;;7.38;4.55;;;7.20;99.90;;;;;;4953567;29;20239;-76
2022/01/18 08:22:08;;;;;;;4.57;3.28;;;7.20;99.90;;;;;;4939134;29;20306;-76
2022/01/18 08:24:37;;;;;;;4.47;2.13;;;7.30;99.90;;;;;;4952195;28;20245;-76
2022/01/18 08:27:05;;;;;;;7.72;2.20;;;7.30;99.90;;;;;;4953361;29;20258;-76
2022/01/18 08:29:33;;;;;;;3.53;2.00;;;7.30;99.90;;;;;;4953274;29;20235;-76
2022/01/18 08:32:18;;;;;;;5.45;2.05;;;7.30;99.90;;;;;;4953205;29;20200;-76
2022/01/18 08:34:46;;;;;;;9.55;2.13;;;7.40;99.90;;;;;;4953632;29;20235;-76
2022/01/18 08:37:14;;;;;;;3.50;2.13;;;7.40;99.90;;;;;;4953196;29;20238;-75
2022/01/18 08:39:42;;;;;;;7.00;2.92;;;7.50;99.90;;;;;;4953340;29;20562;-74
2022/01/18 08:42:10;;;;;;;5.50;1.88;;;7.60;99.90;;;;;;4952998;29;20216;-73
2022/01/18 08:44:42;;;;;;;5.13;1.98;;;7.60;99.90;;;;;;4953102;29;20266;-76
2022/01/18 08:47:11;;;;;;;12.45;7.57;;;7.70;99.90;;;;;;4953489;28;20233;-75
2022/01/18 08:49:41;;;;;;;13.93;10.02;;;7.80;99.90;;;;;;4952758;29;20246;-76
2022/01/18 08:52:09;;;;;;;19.10;12.63;;;7.80;99.90;;;;;;4940940;29;20200;-76
2022/01/18 08:54:39;;;;;;;8.93;5.60;;;7.80;99.90;;;;;;4947764;29;20211;-76
2022/01/18 08:57:07;;;;;;;7.30;3.53;;;7.70;99.90;;;;;;4952782;29;20265;-75
2022/01/18 08:59:35;;;;;;;3.58;2.70;;;7.80;99.90;;;;;;4952683;29;20245;-76
2022/01/18 09:02:04;;;;;;;6.35;2.90;;;7.80;99.90;;;;;;4952871;29;20211;-75
2022/01/18 09:04:33;;;;;;;7.78;3.80;;;7.90;99.90;;;;;;4953070;29;20302;-76
2022/01/18 09:07:07;;;;;;;10.13;5.50;;;8.00;99.90;;;;;;4952813;29;20646;-76
2022/01/18 09:09:35;;;;;;;5.82;2.92;;;7.90;99.90;;;;;;4952842;28;20213;-76
2022/01/18 09:12:04;;;;;;;8.70;3.25;;;7.70;99.90;;;;;;4952562;29;20238;-76
2022/01/18 09:14:32;;;;;;;6.57;3.15;;;7.70;99.90;;;;;;4952743;29;20272;-76
2022/01/18 09:17:00;;;;;;;5.47;2.72;;;7.70;99.90;;;;;;4940051;29;20255;-76
2022/01/18 09:19:28;;;;;;;5.38;3.33;;;7.60;99.90;;;;;;4934297;29;20208;-76
2022/01/18 09:21:57;;;;;;;5.45;2.90;;;7.70;99.90;;;;;;4938738;29;20210;-75
2022/01/18 09:24:27;;;;;;;9.88;6.00;;;7.80;99.90;;;;;;4952204;29;20414;-76
2022/01/18 09:26:55;;;;;;;9.50;4.45;;;7.90;99.90;;;;;;4952528;29;20266;-76
2022/01/18 09:29:23;;;;;;;7.00;3.25;;;7.70;99.90;;;;;;4952654;29;20551;-74
2022/01/18 09:31:51;;;;;;;10.13;4.35;;;7.70;99.90;;;;;;4951632;29;20215;-76
2022/01/18 09:34:19;;;;;;;8.57;5.38;;;7.70;99.90;;;;;;4952607;29;20282;-76
2022/01/18 09:36:47;;;;;;;9.48;6.35;;;7.60;99.90;;;;;;4951892;29;20322;-75
2022/01/18 09:39:15;;;;;;;10.90;7.38;;;7.70;99.90;;;;;;4952255;29;20234;-76
2022/01/18 09:41:50;;;;;;;12.77;8.18;;;7.80;99.90;;;;;;4952196;29;20755;-76
2022/01/18 09:44:19;;;;;;;12.93;8.63;;;7.80;99.90;;;;;;4952382;29;20222;-76
2022/01/18 09:46:49;;;;;;;19.85;9.77;;;7.90;99.90;;;;;;4952099;29;20227;-76
2022/01/18 09:49:18;;;;;;;16.45;9.15;;;8.00;99.90;;;;;;4952454;28;20270;-76
2022/01/18 09:51:46;;;;;;;19.00;10.25;;;8.10;99.90;;;;;;4938500;29;20265;-76
2022/01/18 09:54:14;;;;;;;15.05;8.75;;;8.20;99.90;;;;;;4946035;29;20239;-76
2022/01/18 09:56:42;;;;;;;15.60;10.45;;;8.20;99.90;;;;;;4952041;29;20791;-76
2022/01/18 09:59:11;;;;;;;12.85;9.07;;;8.30;99.90;;;;;;4952259;29;20247;-75
2022/01/18 10:01:39;;;;;;;12.93;10.90;;;8.40;99.90;;;;;;4952134;29;20212;-75
2022/01/18 10:04:16;;;;;;;13.30;10.40;;;8.40;99.90;;;;;;4952397;28;20710;-75
2022/01/18 10:06:46;;;;;;;13.10;10.45;;;8.40;99.90;;;;;;4955652;28;20223;-76
2022/01/18 10:09:15;;;;;;;15.52;10.80;;;8.20;99.90;;;;;;4955958;29;20215;-74
2022/01/18 10:12:01;;;;;;;12.63;10.20;;;8.10;99.90;;;;;;4955733;29;20233;-76
2022/01/18 10:14:31;;;;;;;10.98;8.65;;;8.10;99.90;;;;;;4955738;29;20207;-75
2022/01/18 10:16:59;;;;;;;10.55;7.68;;;8.00;99.90;;;;;;4955584;29;20263;-75
2022/01/18 10:19:32;;;;;;;14.18;9.30;;;8.10;99.90;;;;;;4955647;29;20215;-76
2022/01/18 10:22:15;;;;;;;9.65;7.85;;;8.20;99.90;;;;;;4945854;29;20204;-75
2022/01/18 10:24:44;;;;;;;7.90;6.22;;;8.30;99.90;;;;;;4949781;29;20317;-76
2022/01/18 10:27:14;;;;;;;5.38;4.88;;;8.40;99.90;;;;;;4955539;28;20227;-76
2022/01/18 10:29:45;;;;;;;10.48;7.72;;;8.50;99.90;;;;;;4955259;29;20298;-76
2022/01/18 10:32:17;;;;;;;9.25;6.05;;;8.50;99.90;;;;;;4955443;29;20211;-76
2022/01/18 10:37:30;;;;;;;9.85;6.07;;;8.30;99.90;;;;;;4953507;28;21003;-76
2022/01/18 10:40:00;;;;;;;11.10;4.18;;;8.30;99.90;;;;;;4955314;29;20242;-76
2022/01/18 10:42:33;;;;;;;8.80;6.35;;;8.40;99.90;;;;;;4955381;29;20208;-75
2022/01/18 10:45:06;;;;;;;6.50;3.95;;;8.20;99.90;;;;;;4955287;29;20239;-76
2022/01/18 10:47:35;;;;;;;18.35;12.50;;;8.00;99.90;;;;;;4955142;29;20233;-76
2022/01/18 10:50:11;;;;;;;8.75;5.18;;;8.00;99.90;;;;;;4945404;29;20616;-75
2022/01/18 10:52:40;;;;;;;4.30;3.35;;;7.90;99.90;;;;;;4943939;29;20210;-74
2022/01/18 10:55:15;;;;;;;4.35;3.92;;;7.90;99.90;;;;;;4954080;29;20712;-75
2022/01/18 10:57:44;;;;;;;1.98;1.25;;;8.00;99.90;;;;;;4955171;29;20222;-74
2022/01/18 11:00:16;;;;;;;5.18;3.47;;;8.00;99.90;;;;;;4949152;29;20212;-73
2022/01/18 11:02:46;;;;;;;5.05;3.63;;;8.00;99.90;;;;;;4930577;29;20212;-74
2022/01/18 11:05:17;;;;;;;5.90;4.05;;;8.10;99.90;;;;;;4936653;29;20235;-76
2022/01/18 11:07:46;;;;;;;3.65;3.35;;;8.10;99.90;;;;;;4936310;29;20299;-76
2022/01/18 11:10:16;;;;;;;4.78;3.22;;;8.20;99.90;;;;;;4936493;29;20223;-75
2022/01/18 11:12:52;;;;;;;5.78;3.58;;;8.30;99.90;;;;;;4936231;29;20623;-75
2022/01/18 11:15:23;;;;;;;5.97;4.65;;;8.30;99.90;;;;;;4935129;29;20246;-76
2022/01/18 11:17:58;;;;;;;6.72;4.65;;;8.30;99.90;;;;;;4936400;29;20648;-76
2022/01/18 11:20:27;;;;;;;10.23;5.82;;;8.40;99.90;;;;;;4936108;29;20233;-75
2022/01/18 11:22:55;;;;;;;7.80;5.82;;;8.40;99.90;;;;;;4942398;29;20601;-75
2022/01/18 11:25:24;;;;;;;6.90;4.85;;;8.40;99.90;;;;;;4952675;29;20642;-75
2022/01/18 11:27:56;;;;;;;10.00;5.28;;;8.40;99.90;;;;;;4954446;29;20231;-76
2022/01/18 11:30:29;;;;;;;7.28;5.18;;;8.30;99.90;;;;;;4943287;28;20236;-76
2022/01/18 11:32:59;;;;;;;3.67;2.80;;;8.30;99.90;;;;;;4938872;29;20260;-75
2022/01/18 11:35:34;;;;;;;4.78;4.28;;;8.40;99.90;;;;;;4942743;29;20204;-73
2022/01/18 11:38:10;;;;;;;4.63;3.00;;;8.40;99.90;;;;;;4961813;23;20274;-64
2022/01/18 11:40:46;;;;;;;3.47;2.85;;;8.40;99.90;;;;;;4952668;29;20231;-63
2022/01/18 11:43:15;;;;;;;4.95;3.20;;;8.30;99.90;;;;;;4953899;29;20290;-63
2022/01/18 11:45:44;;;;;;;8.43;3.50;;;8.40;99.90;;;;;;4954513;29;20258;-63
2022/01/18 11:48:18;;;;;;;5.57;3.20;;;8.40;99.90;;;;;;4954269;29;20286;-63
2022/01/18 11:50:50;;;;;;;6.10;4.03;;;8.40;99.90;;;;;;4947751;29;20297;-62
2022/01/18 11:53:26;;;;;;;5.25;4.13;;;8.30;99.90;;;;;;4945031;29;20214;-63
2022/01/18 11:55:55;;;;;;;5.15;2.97;;;8.20;99.90;;;;;;4954312;29;20207;-64
2022/01/18 11:58:24;;;;;;;7.15;3.60;;;8.20;99.90;;;;;;4954113;29;20265;-63
2022/01/18 12:00:57;;;;;;;7.00;3.42;;;8.20;99.90;;;;;;4954081;29;20629;-64
2022/01/18 12:03:27;;;;;;;9.43;3.10;;;8.10;99.90;;;;;;4942054;29;20732;-63
2022/01/18 12:05:57;;;;;;;4.30;2.70;;;8.10;99.90;;;;;;4953962;29;20230;-63
2022/01/18 12:08:37;;;;;;;2.10;1.88;;;8.10;99.90;;;;;;4953987;29;20263;-63
2022/01/18 12:11:07;;;;;;;3.42;2.70;;;8.10;99.90;;;;;;4953769;29;20238;-64
2022/01/18 12:13:46;;;;;;;5.85;2.67;;;8.20;99.90;;;;;;4953836;29;20751;-64
2022/01/18 12:16:21;;;;;;;4.90;3.40;;;8.30;99.90;;;;;;4953903;29;20203;-64
2022/01/18 12:19:00;;;;;;;4.68;2.55;;;8.40;99.90;;;;;;4953901;29;20206;-64
2022/01/18 12:21:30;;;;;;;7.93;3.42;;;8.30;99.90;;;;;;4940894;29;20259;-64
2022/01/18 12:24:12;;;;;;;6.90;2.35;;;8.30;99.90;;;;;;4937092;29;20238;-64
2022/01/18 12:26:43;;;;;;;7.07;2.83;;;8.30;99.90;;;;;;4953274;28;20322;-64
2022/01/18 12:32:29;;;;;;;5.43;3.45;;;8.40;99.90;;;;;;4953626;29;20290;-64
2022/01/18 12:35:16;;;;;;;5.93;2.72;;;8.40;99.90;;;;;;4953734;29;20669;-64
2022/01/18 12:37:46;;;;;;;3.47;1.92;;;8.60;99.90;;;;;;4953476;29;20274;-64
2022/01/18 12:40:32;;;;;;;2.25;1.50;;;8.70;99.90;;;;;;4953164;29;20235;-64
2022/01/18 12:45:55;;;;;;;5.35;1.77;;;8.60;99.90;;;;;;4953540;29;20222;-64
2022/01/18 12:48:25;;;;;;;1.42;1.30;;;8.60;99.90;;;;;;4953366;29;20231;-64
2022/01/18 12:50:58;;;;;;;3.17;1.30;;;8.60;99.90;;;;;;4946150;29;20302;-64
2022/01/18 12:53:33;;;;;;;3.15;1.70;;;8.60;99.90;;;;;;4929511;29;20205;-65
2022/01/18 12:56:03;;;;;;;1.40;1.13;;;8.60;99.90;;;;;;4953203;29;20207;-64
2022/01/18 12:58:34;;;;;;;3.28;1.88;;;8.60;99.90;;;;;;4952938;29;20266;-64
2022/01/18 13:01:05;;;;;;;3.95;1.55;;;8.70;99.90;;;;;;4953211;29;20203;-64
2022/01/18 13:03:36;;;;;;;2.00;1.20;;;8.70;99.90;;;;;;4953515;29;20285;-63
2022/01/18 13:06:07;;;;;;;3.40;1.35;;;8.80;99.90;;;;;;4952946;29;20211;-64
2022/01/18 13:08:43;;;;;;;1.45;1.05;;;8.80;99.90;;;;;;4953268;29;20735;-64
2022/01/18 13:11:12;;;;;;;2.80;1.33;;;8.90;99.90;;;;;;4953304;29;20238;-64
2022/01/18 13:13:40;;;;;;;1.20;1.10;;;8.90;99.90;;;;;;4952997;29;20289;-63
2022/01/18 13:27:32;;;;;;;1.63;1.30;;;9.10;99.90;;;;;;4923056;29;20926;-64
2022/01/18 13:30:19;;;;;;;3.58;1.50;;;9.10;99.90;;;;;;4949971;29;20203;-64
2022/01/18 13:32:49;;;;;;;3.10;1.73;;;9.00;99.90;;;;;;4952353;29;20655;-64
2022/01/18 13:35:22;;;;;;;2.85;1.55;;;9.00;99.90;;;;;;4952506;29;20626;-64
2022/01/18 13:37:50;;;;;;;2.58;1.70;;;8.90;99.90;;;;;;4946011;29;20235;-64
2022/01/18 13:40:20;;;;;;;2.05;1.50;;;8.90;99.90;;;;;;4942495;29;20266;-64
2022/01/18 13:42:50;;;;;;;1.98;1.55;;;8.90;99.90;;;;;;4944777;29;20210;-64
2022/01/18 13:45:20;;;;;;;3.72;1.77;;;9.00;99.90;;;;;;4956332;29;20263;-64
2022/01/18 13:47:52;;;;;;;1.70;1.33;;;9.00;99.90;;;;;;4956444;29;20916;-64
2022/01/18 13:50:47;;;;;;;5.10;2.10;;;8.90;99.90;;;;;;4956654;29;20207;-64
2022/01/18 13:53:18;;;;;;;3.08;1.73;;;8.90;99.90;;;;;;4931089;29;20217;-64
2022/01/18 13:55:52;;;;;;;4.95;3.22;;;8.90;99.90;;;;;;4938864;29;20215;-64
2022/01/18 13:58:22;;;;;;;4.78;3.67;;;8.70;99.90;;;;;;4943991;29;20752;-64
2022/01/18 14:00:50;;;;;;;5.40;3.10;;;8.60;99.90;;;;;;4944653;29;20238;-64
2022/01/18 14:03:34;;;;;;;7.97;4.82;;;8.60;99.90;;;;;;4956040;29;20290;-64
2022/01/18 14:06:05;;;;;;;5.90;4.40;;;8.50;99.90;;;;;;4955986;29;20219;-64
2022/01/18 14:08:35;;;;;;;6.65;4.97;;;8.50;99.90;;;;;;4956105;29;20638;-64
2022/01/18 14:11:06;;;;;;;7.40;5.05;;;8.50;99.90;;;;;;4956409;29;20637;-64
2022/01/18 14:13:36;;;;;;;8.68;4.72;;;8.50;99.90;;;;;;4955853;29;20263;-64
2022/01/18 14:16:19;;;;;;;4.88;3.95;;;8.50;99.90;;;;;;4955973;29;20242;-64
2022/01/18 14:18:52;;;;;;;6.30;4.35;;;8.50;99.90;;;;;;4955934;29;20208;-64